CheckWX is a tool to help pilots better visualize weather data.  It is not intended as a substitute for an official pre-flight weather briefing.

14:16:26 UTC

KLNS METAR
Lancaster Airport
Lancaster, Pennsylvania, USA
Current

23 mins ago

KLNS 221353Z 33015KT 10SM OVC055 15/09 A3012 RMK AO2 SLP201 T01500089
Observed
Apr-22 @ 13:53 UTC
Wind
  • 330° at 15 KTS
Visibility
10 SM
Flight Rules
VFR
Cloud Levels
  • Overcast at 5,500' AGL
Temperature
15°C / 59°F
Dewpoint
C / 48°F
Humidity
68%
Altimeter
30.12" Hg
Pressure
1020.02 hPa
Previous

1 hour ago

KLNS 221253Z 35010KT 10SM OVC042 14/09 A3013 RMK AO2 SLP201 T01390089
Observed
Apr-22 @ 12:53 UTC
Wind
  • 350° at 10 KTS
Visibility
10 SM
Flight Rules
VFR
Cloud Levels
  • Overcast at 4,200' AGL
Temperature
14°C / 57°F
Dewpoint
C / 48°F
Humidity
72%
Altimeter
30.13" Hg
Pressure
1020.32 hPa
Previous

2 hours ago

KLNS 221153Z 33007KT 10SM CLR 13/09 A3012 RMK AO2 SLP199 T01330094 10139 20122 53016
Observed
Apr-22 @ 11:53 UTC
Wind
  • 330° at 7 KTS
Visibility
10 SM
Flight Rules
VFR
Cloud Levels
  • Clear skies
Temperature
13°C / 55°F
Dewpoint
C / 48°F
Humidity
77%
Altimeter
30.12" Hg
Pressure
1020.02 hPa